Time;durP1;ratioP1;P1;durP2;ratioP2;P2;SDS_P1;SDS_P2;PMS_P1;PMS_P2;Temp;Humidity;BMP_temperature;BMP_pressure;BME280_temperature;BME280_humidity;BME280_pressure;Samples;Min_cycle;Max_cycle;Signal;HPM_P1;HPM_P2
2023/06/09 00:02:18;;;;;;;2.80;1.40;;;16.60;1.00;;;;;;5093936;28;20745;-57
2023/06/09 00:04:46;;;;;;;1.73;1.40;;;16.60;1.00;;;;;;5094289;28;20436;-59
2023/06/09 00:07:15;;;;;;;3.58;1.58;;;16.50;1.00;;;;;;5094301;28;20427;-58
2023/06/09 00:09:42;;;;;;;1.50;1.38;;;16.50;1.00;;;;;;5095699;28;20429;-59
2023/06/09 00:12:10;;;;;;;2.20;1.58;;;16.50;1.00;;;;;;5095459;28;20429;-59
2023/06/09 00:14:37;;;;;;;2.03;1.33;;;16.60;1.00;;;;;;5095224;28;20521;-59
2023/06/09 00:17:07;;;;;;;2.47;1.42;;;16.60;1.00;;;;;;5094815;28;20475;-59
2023/06/09 00:19:35;;;;;;;2.30;1.40;;;16.50;1.00;;;;;;5095338;28;20792;-58
2023/06/09 00:22:04;;;;;;;2.40;1.40;;;16.60;1.00;;;;;;5095849;28;20888;-59
2023/06/09 00:24:31;;;;;;;2.30;1.40;;;16.50;1.00;;;;;;5095078;28;20853;-59
2023/06/09 00:26:58;;;;;;;2.03;1.50;;;16.50;1.00;;;;;;5095724;28;20426;-59
2023/06/09 00:29:25;;;;;;;1.77;1.40;;;16.50;1.00;;;;;;5094248;28;20422;-59
2023/06/09 00:31:52;;;;;;;2.20;1.60;;;16.50;1.00;;;;;;5093375;28;20426;-59
2023/06/09 00:34:19;;;;;;;1.80;1.30;;;16.50;1.00;;;;;;5094107;28;20493;-60
2023/06/09 00:36:47;;;;;;;2.10;1.30;;;16.60;1.00;;;;;;5092962;28;20505;-59
2023/06/09 00:39:16;;;;;;;2.40;1.40;;;16.60;1.00;;;;;;5092423;28;20422;-59
2023/06/09 00:41:43;;;;;;;2.30;1.50;;;16.60;1.00;;;;;;5092173;28;20562;-59
2023/06/09 00:44:12;;;;;;;2.60;1.63;;;16.50;1.00;;;;;;5091020;28;20815;-59
2023/06/09 00:46:40;;;;;;;2.30;1.65;;;16.50;1.00;;;;;;5094362;28;20453;-59
2023/06/09 00:49:09;;;;;;;2.50;1.60;;;16.50;1.00;;;;;;5094583;28;20425;-58
2023/06/09 00:51:37;;;;;;;2.60;1.90;;;16.40;1.00;;;;;;5095120;28;20472;-59
2023/06/09 00:54:05;;;;;;;1.90;1.35;;;16.40;1.00;;;;;;5094420;28;20441;-59
2023/06/09 00:56:34;;;;;;;2.00;1.40;;;16.40;1.00;;;;;;5093534;28;20454;-59
2023/06/09 00:59:02;;;;;;;2.67;1.40;;;16.30;1.00;;;;;;5094574;28;20429;-59
2023/06/09 01:01:32;;;;;;;2.10;1.40;;;16.20;1.00;;;;;;5094942;28;20422;-58
2023/06/09 01:03:59;;;;;;;1.70;1.30;;;16.20;1.00;;;;;;5094313;28;20734;-59
2023/06/09 01:06:39;;;;;;;2.20;1.40;;;16.10;1.00;;;;;;5093857;28;20442;-59
2023/06/09 01:09:14;;;;;;;2.10;1.30;;;16.10;1.00;;;;;;5093712;28;20487;-60
2023/06/09 01:11:51;;;;;;;1.90;1.30;;;16.00;1.00;;;;;;5093619;28;20473;-58
2023/06/09 01:14:25;;;;;;;3.10;1.60;;;16.00;1.00;;;;;;5093190;28;20417;-58
2023/06/09 01:16:59;;;;;;;2.05;1.40;;;16.00;1.00;;;;;;5094049;28;20876;-59
2023/06/09 01:19:32;;;;;;;1.70;1.50;;;15.90;1.00;;;;;;5097412;28;20433;-58
2023/06/09 01:22:03;;;;;;;1.70;1.20;;;16.00;1.00;;;;;;5099128;28;20864;-58
2023/06/09 01:24:46;;;;;;;1.90;1.50;;;15.90;1.00;;;;;;5098878;28;20437;-57
2023/06/09 01:27:18;;;;;;;2.97;1.60;;;16.00;1.00;;;;;;5099368;28;20435;-58
2023/06/09 01:29:45;;;;;;;2.75;1.35;;;16.00;1.00;;;;;;5098537;28;20417;-60
2023/06/09 01:32:16;;;;;;;2.40;1.40;;;15.90;1.00;;;;;;5097369;28;20431;-58
2023/06/09 01:34:44;;;;;;;2.10;1.42;;;15.90;1.00;;;;;;5098424;28;20470;-58
2023/06/09 01:37:12;;;;;;;2.50;1.40;;;15.90;1.00;;;;;;5098521;28;20426;-59
2023/06/09 01:39:41;;;;;;;2.00;1.50;;;15.80;1.00;;;;;;5098319;28;20421;-59
2023/06/09 01:42:08;;;;;;;1.98;1.20;;;15.80;1.00;;;;;;5098373;28;20433;-58
2023/06/09 01:44:37;;;;;;;2.10;1.60;;;15.70;1.00;;;;;;5098712;28;20437;-58
2023/06/09 01:47:04;;;;;;;2.50;1.80;;;15.80;1.00;;;;;;5098142;28;20780;-59
2023/06/09 01:49:39;;;;;;;3.20;1.40;;;15.80;1.00;;;;;;5098007;28;20440;-59
2023/06/09 01:52:13;;;;;;;1.70;1.50;;;15.70;1.00;;;;;;5098340;28;20421;-58
2023/06/09 01:54:47;;;;;;;1.90;1.45;;;15.70;1.00;;;;;;5098164;28;20429;-58
2023/06/09 01:57:20;;;;;;;2.10;1.80;;;15.60;1.00;;;;;;5098347;28;20426;-59
2023/06/09 01:59:54;;;;;;;1.90;1.40;;;15.60;6.10;;;;;;5096507;28;20425;-58
2023/06/09 02:02:25;;;;;;;3.60;1.50;;;15.60;19.30;;;;;;5096131;28;20714;-59
2023/06/09 02:04:54;;;;;;;1.80;1.30;;;15.50;21.30;;;;;;5098330;28;20876;-60
2023/06/09 02:07:22;;;;;;;1.80;1.50;;;15.50;28.30;;;;;;5097571;28;20511;-60
2023/06/09 02:09:50;;;;;;;2.00;1.52;;;15.50;33.40;;;;;;5096990;28;20856;-59
2023/06/09 02:12:17;;;;;;;1.75;1.40;;;15.50;33.50;;;;;;5097507;28;20421;-62
2023/06/09 02:14:44;;;;;;;2.72;1.52;;;15.50;15.30;;;;;;5097756;28;20421;-58
2023/06/09 02:17:13;;;;;;;2.55;1.70;;;15.50;3.80;;;;;;5097805;28;20433;-59
2023/06/09 02:19:41;;;;;;;2.10;1.50;;;15.50;4.70;;;;;;5096960;28;20715;-57
2023/06/09 02:22:09;;;;;;;2.08;1.60;;;15.40;6.50;;;;;;5096895;28;20524;-59
2023/06/09 02:24:36;;;;;;;1.80;1.60;;;15.50;5.80;;;;;;5096963;28;20560;-59
2023/06/09 02:27:03;;;;;;;2.00;1.70;;;15.50;2.20;;;;;;5097170;28;20422;-58
2023/06/09 02:29:30;;;;;;;2.28;1.60;;;15.40;1.00;;;;;;5097337;28;20441;-57
2023/06/09 02:32:00;;;;;;;1.90;1.45;;;15.30;1.00;;;;;;5097661;28;20422;-58
2023/06/09 02:34:29;;;;;;;2.65;1.40;;;15.30;2.00;;;;;;5098118;28;20418;-58
2023/06/09 02:36:58;;;;;;;2.13;1.50;;;15.30;9.10;;;;;;5097112;28;20783;-58
2023/06/09 02:39:25;;;;;;;2.28;1.48;;;15.20;10.80;;;;;;5097449;28;20860;-59
2023/06/09 02:41:52;;;;;;;2.08;1.45;;;15.20;13.60;;;;;;5097727;28;20729;-58
2023/06/09 02:44:19;;;;;;;2.70;1.70;;;15.30;9.40;;;;;;5096917;28;20430;-57
2023/06/09 02:46:46;;;;;;;2.35;1.50;;;15.20;6.20;;;;;;5097714;28;20421;-59
2023/06/09 02:49:13;;;;;;;2.38;1.67;;;15.20;6.30;;;;;;5095961;28;20434;-59
2023/06/09 02:51:42;;;;;;;2.20;1.90;;;15.20;14.40;;;;;;5096848;28;20549;-58
2023/06/09 02:54:09;;;;;;;1.90;1.60;;;15.10;19.10;;;;;;5097229;28;20425;-58
2023/06/09 02:56:36;;;;;;;1.90;1.70;;;15.10;22.70;;;;;;5097112;28;20845;-58
2023/06/09 02:59:03;;;;;;;3.22;1.92;;;15.10;12.20;;;;;;5097213;28;20452;-59
2023/06/09 03:01:34;;;;;;;2.70;2.03;;;15.10;16.60;;;;;;5096801;28;20425;-58
2023/06/09 03:04:02;;;;;;;2.50;1.70;;;15.10;18.40;;;;;;5096877;28;20429;-58
2023/06/09 03:06:32;;;;;;;3.15;1.65;;;15.10;14.70;;;;;;5096949;28;20520;-58
2023/06/09 03:09:02;;;;;;;2.40;1.58;;;15.00;13.10;;;;;;5095860;28;20469;-58
2023/06/09 03:11:29;;;;;;;2.90;1.60;;;15.10;18.60;;;;;;5095741;28;20424;-58
2023/06/09 03:13:56;;;;;;;3.10;1.92;;;15.00;22.60;;;;;;5097142;28;20475;-59
2023/06/09 03:16:23;;;;;;;3.30;1.80;;;15.10;28.80;;;;;;5096084;28;20487;-58
2023/06/09 03:18:50;;;;;;;2.30;1.60;;;15.10;31.20;;;;;;5096935;28;20738;-58
2023/06/09 03:21:18;;;;;;;2.70;1.80;;;15.20;23.90;;;;;;5096177;28;20475;-58
2023/06/09 03:23:45;;;;;;;2.17;1.90;;;15.10;21.40;;;;;;5093633;28;20778;-58
2023/06/09 03:26:14;;;;;;;2.42;2.00;;;15.10;19.10;;;;;;5093822;28;20809;-58
2023/06/09 03:28:40;;;;;;;2.20;1.80;;;15.10;24.30;;;;;;5094417;28;20418;-58
2023/06/09 03:31:07;;;;;;;2.97;1.98;;;15.00;23.40;;;;;;5095538;28;20784;-57
2023/06/09 03:33:35;;;;;;;4.13;1.80;;;14.90;26.60;;;;;;5094990;28;20421;-58
2023/06/09 03:36:02;;;;;;;2.22;1.60;;;14.90;37.80;;;;;;5094472;28;20468;-58
2023/06/09 03:38:29;;;;;;;2.90;1.70;;;14.90;24.90;;;;;;5095952;28;20715;-60
2023/06/09 03:40:56;;;;;;;2.80;2.05;;;14.80;21.10;;;;;;5095990;28;20414;-58
2023/06/09 03:43:25;;;;;;;3.43;2.33;;;14.80;24.90;;;;;;5094194;28;20482;-58
2023/06/09 03:45:52;;;;;;;1.90;1.60;;;14.90;31.00;;;;;;5096062;28;20761;-58
2023/06/09 03:48:19;;;;;;;3.10;2.10;;;14.90;30.00;;;;;;5094975;28;20792;-58
2023/06/09 03:50:45;;;;;;;4.70;2.30;;;14.90;30.50;;;;;;5096159;28;20422;-58
2023/06/09 03:53:13;;;;;;;2.70;2.00;;;14.90;28.00;;;;;;5096129;28;20421;-57
2023/06/09 03:55:39;;;;;;;2.67;2.00;;;14.80;35.10;;;;;;5095593;28;20414;-58
2023/06/09 03:58:08;;;;;;;2.80;2.00;;;14.90;41.70;;;;;;5094985;28;20841;-58
2023/06/09 04:00:37;;;;;;;2.88;2.10;;;15.00;32.20;;;;;;5095084;28;20524;-58
2023/06/09 04:03:04;;;;;;;2.33;1.80;;;14.90;25.70;;;;;;5095591;28;20406;-57
2023/06/09 04:05:31;;;;;;;3.20;2.03;;;14.90;24.70;;;;;;5095719;28;20438;-57
2023/06/09 04:07:58;;;;;;;2.80;2.10;;;14.80;28.70;;;;;;5095510;28;20710;-58
2023/06/09 04:10:25;;;;;;;3.88;2.20;;;14.80;35.30;;;;;;5094996;28;20444;-57
2023/06/09 04:12:52;;;;;;;2.65;1.90;;;14.80;39.90;;;;;;5096233;28;20925;-58
2023/06/09 04:15:19;;;;;;;3.17;1.97;;;14.90;40.80;;;;;;5095428;28;20422;-58
2023/06/09 04:17:47;;;;;;;3.55;2.13;;;15.00;42.50;;;;;;5095523;28;20834;-58
2023/06/09 04:20:14;;;;;;;2.97;2.20;;;15.00;34.60;;;;;;5094859;28;20783;-58
2023/06/09 04:22:47;;;;;;;2.13;1.90;;;15.00;31.90;;;;;;5094473;28;20475;-57
2023/06/09 04:25:14;;;;;;;3.63;1.98;;;15.10;26.80;;;;;;5094219;28;20426;-58
2023/06/09 04:27:42;;;;;;;3.53;2.00;;;15.10;24.90;;;;;;5094335;28;20436;-58
2023/06/09 04:30:10;;;;;;;3.30;2.10;;;15.20;25.10;;;;;;5095666;28;20446;-58
2023/06/09 04:32:37;;;;;;;2.72;2.10;;;15.30;26.00;;;;;;5094953;28;20426;-57
2023/06/09 04:35:08;;;;;;;2.80;2.20;;;15.30;23.40;;;;;;5094281;28;20471;-58
2023/06/09 04:37:36;;;;;;;4.07;2.10;;;15.40;14.40;;;;;;5093489;28;20421;-58
2023/06/09 04:40:03;;;;;;;3.80;2.33;;;15.50;13.00;;;;;;5094331;28;20430;-58
2023/06/09 04:42:31;;;;;;;4.23;2.30;;;15.50;10.20;;;;;;5094438;28;20429;-60
2023/06/09 04:44:58;;;;;;;2.65;2.00;;;15.50;20.10;;;;;;5093861;28;20872;-58
2023/06/09 04:47:25;;;;;;;2.77;2.47;;;15.60;23.90;;;;;;5091054;28;20421;-58
2023/06/09 04:49:53;;;;;;;3.22;2.70;;;15.60;19.40;;;;;;5090821;28;20910;-57
2023/06/09 04:52:21;;;;;;;3.25;2.47;;;15.60;13.70;;;;;;5092857;28;20430;-58
2023/06/09 04:54:51;;;;;;;2.60;2.30;;;15.60;18.40;;;;;;5094026;28;20426;-59
2023/06/09 04:57:19;;;;;;;2.90;2.17;;;15.60;13.00;;;;;;5093667;28;20736;-58
2023/06/09 04:59:46;;;;;;;2.97;1.98;;;15.50;22.80;;;;;;5093272;28;20432;-59
2023/06/09 05:02:13;;;;;;;3.05;2.50;;;15.60;33.20;;;;;;5093953;28;20418;-59
2023/06/09 05:04:40;;;;;;;3.60;2.20;;;15.60;29.80;;;;;;5093020;28;20422;-59
2023/06/09 05:07:07;;;;;;;2.97;2.33;;;15.70;18.30;;;;;;5093178;28;20483;-59
2023/06/09 05:09:36;;;;;;;2.63;2.10;;;15.70;16.70;;;;;;5093233;28;20499;-57
2023/06/09 05:12:03;;;;;;;2.35;1.88;;;15.80;14.70;;;;;;5093812;28;20426;-58
2023/06/09 05:14:30;;;;;;;3.38;2.40;;;15.80;1.00;;;;;;5092245;28;20421;-59
2023/06/09 05:16:58;;;;;;;2.70;2.30;;;15.90;1.00;;;;;;5092440;28;20418;-58
2023/06/09 05:19:25;;;;;;;3.70;2.65;;;16.00;1.00;;;;;;5094649;28;20441;-59
2023/06/09 05:21:51;;;;;;;3.05;2.40;;;16.20;1.00;;;;;;5093965;28;20425;-59
2023/06/09 05:24:18;;;;;;;3.30;2.40;;;16.20;1.00;;;;;;5094237;28;20483;-59
2023/06/09 05:26:47;;;;;;;2.50;2.13;;;16.40;1.00;;;;;;5093311;28;20753;-59
2023/06/09 05:29:14;;;;;;;3.70;2.40;;;16.40;1.00;;;;;;5091763;28;20433;-57
2023/06/09 05:31:41;;;;;;;2.50;2.30;;;16.40;1.00;;;;;;5091660;28;20421;-58
2023/06/09 05:34:08;;;;;;;4.50;2.70;;;16.50;1.00;;;;;;5092153;28;20482;-58
2023/06/09 05:36:36;;;;;;;3.90;2.85;;;16.50;1.00;;;;;;5089947;28;20483;-58
2023/06/09 05:39:03;;;;;;;3.30;2.60;;;16.40;1.00;;;;;;5089418;28;20536;-59
2023/06/09 05:41:30;;;;;;;2.80;2.22;;;16.50;1.00;;;;;;5090001;28;21294;-58
2023/06/09 05:43:58;;;;;;;3.00;2.55;;;16.60;1.00;;;;;;5089946;28;20437;-59
2023/06/09 05:46:26;;;;;;;4.47;2.53;;;16.60;1.00;;;;;;5090569;28;20465;-57
2023/06/09 05:48:53;;;;;;;3.05;2.75;;;16.70;1.00;;;;;;5091884;28;20426;-58
2023/06/09 05:51:20;;;;;;;2.97;2.23;;;16.80;1.00;;;;;;5090873;28;20426;-60
2023/06/09 05:53:47;;;;;;;2.55;2.35;;;16.80;1.00;;;;;;5092870;28;20466;-59
2023/06/09 05:56:15;;;;;;;3.00;2.38;;;17.00;1.00;;;;;;5092992;28;20756;-59
2023/06/09 05:58:44;;;;;;;2.90;2.00;;;17.10;1.00;;;;;;5093651;28;20465;-59
2023/06/09 06:01:13;;;;;;;3.22;2.65;;;17.10;1.00;;;;;;5091792;28;20428;-60
2023/06/09 06:03:41;;;;;;;3.25;2.80;;;17.20;1.00;;;;;;5091557;28;20426;-60
2023/06/09 06:06:09;;;;;;;4.22;2.97;;;17.20;1.00;;;;;;5095357;28;20487;-59
2023/06/09 06:08:36;;;;;;;2.83;2.53;;;17.30;1.00;;;;;;5095468;28;20421;-60
2023/06/09 06:11:03;;;;;;;2.80;2.30;;;17.40;1.00;;;;;;5095467;28;20420;-60
2023/06/09 06:13:30;;;;;;;3.50;2.20;;;17.60;1.00;;;;;;5096691;28;20430;-59
2023/06/09 06:15:59;;;;;;;2.50;2.10;;;17.70;1.00;;;;;;5096183;28;20426;-60
2023/06/09 06:18:27;;;;;;;3.30;2.72;;;17.80;1.00;;;;;;5095917;28;20845;-59
2023/06/09 06:20:55;;;;;;;4.00;3.17;;;17.90;1.00;;;;;;5096281;28;20425;-60
2023/06/09 06:23:22;;;;;;;3.20;2.90;;;18.00;1.00;;;;;;5095916;28;20506;-60
2023/06/09 06:25:49;;;;;;;4.30;3.47;;;18.20;1.00;;;;;;5094371;28;20457;-60
2023/06/09 06:28:16;;;;;;;4.28;2.97;;;18.30;1.00;;;;;;5096382;28;20848;-60
2023/06/09 06:30:43;;;;;;;4.03;3.60;;;18.30;1.00;;;;;;5096097;28;20425;-59
2023/06/09 06:33:10;;;;;;;4.13;2.78;;;18.40;1.00;;;;;;5099678;28;20426;-59
2023/06/09 06:35:40;;;;;;;4.20;3.42;;;18.50;1.00;;;;;;5114530;28;20461;-59
2023/06/09 06:38:08;;;;;;;3.58;3.28;;;18.60;99.90;;;;;;5114930;28;20424;-58
2023/06/09 06:40:35;;;;;;;2.92;2.63;;;18.50;99.90;;;;;;5116351;28;20477;-59
2023/06/09 06:43:02;;;;;;;3.17;2.90;;;18.50;99.90;;;;;;5114472;28;20493;-59
2023/06/09 06:45:29;;;;;;;2.40;1.90;;;18.70;99.90;;;;;;5116097;28;20424;-58
2023/06/09 06:47:56;;;;;;;3.38;3.08;;;18.80;12.00;;;;;;5115882;28;20424;-58
2023/06/09 06:50:23;;;;;;;2.03;1.67;;;18.90;1.00;;;;;;5114549;28;20412;-58
2023/06/09 06:52:51;;;;;;;5.30;2.10;;;18.90;1.00;;;;;;5114791;28;20413;-58
2023/06/09 06:55:18;;;;;;;3.40;2.63;;;19.00;1.00;;;;;;5114709;28;20744;-59
2023/06/09 06:57:45;;;;;;;2.35;2.15;;;19.10;1.00;;;;;;5114771;28;20432;-58
2023/06/09 07:00:14;;;;;;;1.97;1.77;;;19.10;1.00;;;;;;5113283;28;20859;-58
2023/06/09 07:02:41;;;;;;;3.40;2.75;;;19.30;1.00;;;;;;5113746;28;20432;-60
2023/06/09 07:05:09;;;;;;;2.25;2.05;;;19.40;99.90;;;;;;5113537;28;20531;-58
2023/06/09 07:07:36;;;;;;;3.40;2.10;;;19.50;99.90;;;;;;5113135;28;20716;-58
2023/06/09 07:10:08;;;;;;;2.70;2.50;;;19.70;99.90;;;;;;5104675;28;20691;-58
2023/06/09 07:12:35;;;;;;;2.50;1.90;;;20.00;99.90;;;;;;5103129;28;20444;-58
2023/06/09 07:15:02;;;;;;;3.20;2.50;;;20.10;1.00;;;;;;5100621;28;20421;-58
2023/06/09 07:17:29;;;;;;;4.43;2.70;;;20.20;99.90;;;;;;5092413;28;20418;-58
2023/06/09 07:19:57;;;;;;;2.50;2.08;;;20.30;99.90;;;;;;5094160;28;20422;-58
2023/06/09 07:22:24;;;;;;;3.50;1.98;;;20.40;99.90;;;;;;5092552;28;20433;-59
2023/06/09 07:24:51;;;;;;;2.60;1.95;;;20.40;1.00;;;;;;5090866;28;20537;-59
2023/06/09 07:27:19;;;;;;;3.00;2.20;;;20.50;1.00;;;;;;5092228;28;20429;-59
2023/06/09 07:29:46;;;;;;;2.35;1.50;;;20.60;1.00;;;;;;5093221;28;20418;-59
2023/06/09 07:32:13;;;;;;;2.20;1.77;;;20.70;99.90;;;;;;5093838;28;20505;-60
2023/06/09 07:34:40;;;;;;;2.10;1.73;;;20.80;1.00;;;;;;5092906;28;20521;-60
2023/06/09 07:37:07;;;;;;;1.90;1.60;;;20.90;1.00;;;;;;5092906;28;20426;-59
2023/06/09 07:39:37;;;;;;;2.20;1.45;;;21.00;1.00;;;;;;5091429;28;20852;-59
2023/06/09 07:42:05;;;;;;;2.00;1.70;;;21.10;99.90;;;;;;5092744;28;20425;-59
2023/06/09 07:44:34;;;;;;;2.22;1.33;;;21.10;99.90;;;;;;5095804;28;20430;-60
2023/06/09 07:47:00;;;;;;;1.60;1.30;;;21.20;45.90;;;;;;5094360;28;20494;-60
2023/06/09 07:49:27;;;;;;;2.30;1.10;;;21.30;1.00;;;;;;5093299;28;20487;-60
2023/06/09 07:51:55;;;;;;;1.60;1.42;;;21.30;1.00;;;;;;5092183;28;20491;-59
2023/06/09 07:54:22;;;;;;;1.60;1.30;;;21.50;1.00;;;;;;5090115;28;20482;-61
2023/06/09 07:56:50;;;;;;;1.70;1.20;;;21.70;1.00;;;;;;5092943;28;20983;-60
2023/06/09 07:59:18;;;;;;;1.60;1.20;;;21.70;1.00;;;;;;5093073;28;20509;-60
2023/06/09 08:01:46;;;;;;;1.57;1.20;;;21.70;1.00;;;;;;5089501;28;20460;-60
2023/06/09 08:04:14;;;;;;;1.30;1.20;;;21.80;1.00;;;;;;5091608;28;20900;-60
2023/06/09 08:06:42;;;;;;;1.80;1.40;;;22.00;1.00;;;;;;5092373;28;20522;-61
2023/06/09 08:09:09;;;;;;;2.30;1.40;;;22.20;1.00;;;;;;5094019;28;20441;-61
2023/06/09 08:11:36;;;;;;;2.40;1.20;;;22.10;1.00;;;;;;5093230;28;20802;-61
2023/06/09 08:14:05;;;;;;;1.40;1.10;;;22.20;1.00;;;;;;5091259;28;20483;-60
2023/06/09 08:16:32;;;;;;;1.50;1.10;;;22.20;1.00;;;;;;5091591;28;20745;-59
2023/06/09 08:19:01;;;;;;;3.40;1.23;;;22.10;99.90;;;;;;5092448;28;20438;-60
2023/06/09 08:21:28;;;;;;;1.63;1.30;;;22.20;99.90;;;;;;5093110;28;20420;-61
2023/06/09 08:23:55;;;;;;;1.52;1.27;;;22.40;99.90;;;;;;5089818;28;20519;-60
2023/06/09 08:26:22;;;;;;;2.40;1.20;;;22.60;1.00;;;;;;5090224;28;20433;-60
2023/06/09 08:28:49;;;;;;;1.70;1.17;;;22.70;1.00;;;;;;5088977;28;20474;-61
2023/06/09 08:31:16;;;;;;;1.55;1.27;;;22.60;1.00;;;;;;5091052;28;20474;-61
2023/06/09 08:33:44;;;;;;;1.55;1.10;;;22.80;99.90;;;;;;5089900;28;20441;-60
2023/06/09 08:36:12;;;;;;;1.40;1.20;;;22.90;1.00;;;;;;5090164;28;20413;-60
2023/06/09 08:38:39;;;;;;;1.65;1.20;;;23.00;1.00;;;;;;5093007;28;21075;-61
2023/06/09 08:41:09;;;;;;;1.42;1.25;;;23.00;1.00;;;;;;5092539;28;20465;-61
2023/06/09 08:43:36;;;;;;;2.20;1.13;;;23.00;9.00;;;;;;5091671;28;20430;-60
2023/06/09 08:46:05;;;;;;;2.08;1.20;;;22.90;7.70;;;;;;5090601;28;20863;-61
2023/06/09 08:48:33;;;;;;;3.00;1.27;;;23.00;1.00;;;;;;5088877;28;20470;-61
2023/06/09 08:51:01;;;;;;;1.80;1.10;;;23.10;44.10;;;;;;5089321;28;20419;-60
2023/06/09 08:53:31;;;;;;;4.00;1.10;;;23.20;99.90;;;;;;5090750;28;20481;-60
2023/06/09 08:55:59;;;;;;;1.50;1.20;;;23.40;99.90;;;;;;5092258;28;20864;-61
2023/06/09 08:58:28;;;;;;;1.50;1.00;;;23.50;99.90;;;;;;5092515;28;20448;-60
2023/06/09 09:00:55;;;;;;;1.40;1.10;;;23.70;99.90;;;;;;5092548;28;20429;-60
2023/06/09 09:03:23;;;;;;;1.50;1.00;;;23.70;99.90;;;;;;5092109;28;20445;-60
2023/06/09 09:05:50;;;;;;;1.30;1.00;;;23.70;99.90;;;;;;5091955;28;20417;-63
2023/06/09 09:08:20;;;;;;;1.20;1.00;;;23.70;99.90;;;;;;5090514;28;20426;-62
2023/06/09 09:10:48;;;;;;;1.40;1.00;;;23.80;99.90;;;;;;5090479;28;20505;-61
2023/06/09 09:13:17;;;;;;;1.50;1.10;;;24.00;99.90;;;;;;5091088;28;20437;-60
2023/06/09 09:15:50;;;;;;;1.90;0.90;;;24.00;99.90;;;;;;5091062;28;20462;-60
2023/06/09 09:18:19;;;;;;;1.27;1.00;;;24.00;99.90;;;;;;5092896;28;20522;-60
2023/06/09 09:20:46;;;;;;;1.40;1.00;;;24.20;99.90;;;;;;5091937;28;20813;-60
2023/06/09 09:23:14;;;;;;;2.00;0.97;;;24.50;99.90;;;;;;5092331;28;20510;-60
2023/06/09 09:25:43;;;;;;;1.10;0.90;;;24.50;99.90;;;;;;5091553;28;20698;-60
2023/06/09 09:28:13;;;;;;;1.30;1.00;;;24.40;99.90;;;;;;5090046;28;20849;-59
2023/06/09 09:30:48;;;;;;;1.10;0.90;;;24.50;99.90;;;;;;5091050;28;20428;-60
2023/06/09 09:33:18;;;;;;;1.70;1.20;;;24.70;99.90;;;;;;5088564;28;20468;-60
2023/06/09 09:35:46;;;;;;;1.20;1.00;;;25.00;99.90;;;;;;5091981;28;20528;-60
2023/06/09 09:38:16;;;;;;;1.40;1.00;;;25.20;99.90;;;;;;5094738;28;20462;-60
2023/06/09 09:40:45;;;;;;;1.30;1.20;;;25.20;99.90;;;;;;5098468;28;20543;-59
2023/06/09 09:43:14;;;;;;;1.52;0.98;;;25.20;99.90;;;;;;5100152;28;20433;-59
2023/06/09 09:45:44;;;;;;;1.40;0.90;;;25.00;99.90;;;;;;5097517;28;20739;-60
2023/06/09 09:48:13;;;;;;;1.60;1.00;;;24.90;99.90;;;;;;5096917;28;20843;-60
2023/06/09 09:50:41;;;;;;;1.40;0.90;;;25.00;99.90;;;;;;5095635;28;20694;-60
2023/06/09 09:53:09;;;;;;;1.25;0.90;;;25.00;99.90;;;;;;5098995;28;20434;-58
2023/06/09 09:55:37;;;;;;;1.20;1.00;;;25.20;99.90;;;;;;5099067;28;20464;-59
2023/06/09 09:58:06;;;;;;;1.00;0.80;;;25.50;99.90;;;;;;5105187;28;20489;-59
2023/06/09 10:00:37;;;;;;;1.08;0.80;;;25.60;99.90;;;;;;5093176;28;20444;-60
2023/06/09 10:03:09;;;;;;;1.00;0.80;;;25.70;99.90;;;;;;5098156;28;20432;-60
2023/06/09 10:05:39;;;;;;;0.90;0.80;;;25.60;99.90;;;;;;5105389;28;21330;-57
2023/06/09 10:08:07;;;;;;;1.00;0.80;;;25.80;99.90;;;;;;5102339;28;20573;-59
2023/06/09 10:10:35;;;;;;;1.63;0.90;;;26.00;99.90;;;;;;5095052;28;20432;-59
2023/06/09 10:13:03;;;;;;;1.40;0.80;;;26.20;99.90;;;;;;5098143;28;20539;-57
2023/06/09 10:15:32;;;;;;;1.60;0.90;;;26.30;99.90;;;;;;5094952;28;20925;-57
2023/06/09 10:18:01;;;;;;;1.25;0.90;;;26.50;99.90;;;;;;5099608;28;20426;-58
2023/06/09 10:20:29;;;;;;;1.13;0.80;;;26.90;99.90;;;;;;5096260;28;20921;-58
2023/06/09 10:22:56;;;;;;;1.10;0.90;;;27.10;99.90;;;;;;5105747;28;20932;-59
2023/06/09 10:25:25;;;;;;;1.00;0.80;;;27.30;99.90;;;;;;5091104;28;20792;-59
2023/06/09 10:27:52;;;;;;;0.98;0.70;;;27.70;99.90;;;;;;5090027;28;20450;-59
2023/06/09 10:30:21;;;;;;;0.80;0.60;;;27.80;99.90;;;;;;5091122;28;20521;-58
2023/06/09 10:32:52;;;;;;;1.20;0.70;;;27.50;99.90;;;;;;5100494;28;20440;-58
2023/06/09 10:35:27;;;;;;;0.90;0.70;;;27.70;99.40;;;;;;5103767;28;20512;-58
2023/06/09 10:37:56;;;;;;;1.40;0.70;;;28.00;97.30;;;;;;5102780;28;20535;-59
2023/06/09 10:40:31;;;;;;;1.90;0.60;;;28.30;93.10;;;;;;5096913;28;20437;-58
2023/06/09 10:43:20;;;;;;;1.40;0.70;;;28.40;93.60;;;;;;5095413;28;20479;-59
2023/06/09 10:45:52;;;;;;;1.30;0.60;;;28.80;91.50;;;;;;5090190;28;20828;-59
2023/06/09 10:48:45;;;;;;;0.90;0.70;;;29.20;89.00;;;;;;5101709;28;20876;-58
2023/06/09 10:51:39;;;;;;;1.40;0.70;;;29.40;85.50;;;;;;5105203;28;20464;-58
2023/06/09 10:54:25;;;;;;;1.40;0.80;;;29.10;86.30;;;;;;5094713;28;20486;-58
2023/06/09 10:56:55;;;;;;;1.10;0.70;;;29.10;85.50;;;;;;5101471;28;20414;-59
2023/06/09 11:00:12;;;;;;;0.70;0.60;;;29.20;84.00;;;;;;5111696;28;20432;-59
2023/06/09 11:02:43;;;;;;;0.80;0.60;;;29.30;82.80;;;;;;5094574;28;20426;-59
2023/06/09 11:05:10;;;;;;;0.80;0.60;;;29.20;81.50;;;;;;5093766;28;20479;-59
2023/06/09 11:07:50;;;;;;;1.00;0.80;;;29.10;81.80;;;;;;5093067;28;20511;-59
2023/06/09 11:10:36;;;;;;;1.80;0.70;;;29.00;81.90;;;;;;5110182;28;20420;-61
2023/06/09 11:13:39;;;;;;;0.90;0.60;;;29.30;78.10;;;;;;5100049;28;20527;-59
2023/06/09 11:16:08;;;;;;;0.80;0.60;;;28.70;74.60;;;;;;5084088;28;20434;-60
2023/06/09 11:18:35;;;;;;;0.80;0.60;;;28.80;74.60;;;;;;5101538;28;20856;-58
2023/06/09 11:21:12;;;;;;;0.80;0.60;;;28.90;75.10;;;;;;5090813;28;20436;-60
2023/06/09 11:24:02;;;;;;;0.80;0.60;;;29.20;75.70;;;;;;5100148;28;20424;-58
2023/06/09 11:26:31;;;;;;;0.90;0.67;;;29.30;73.80;;;;;;5103742;28;20528;-60
2023/06/09 11:28:59;;;;;;;1.60;0.70;;;29.50;74.00;;;;;;5111956;28;20484;-59
2023/06/09 11:31:27;;;;;;;1.50;0.70;;;29.60;72.50;;;;;;5113272;28;20428;-59
2023/06/09 11:33:55;;;;;;;0.85;0.70;;;30.00;72.20;;;;;;5113334;28;20424;-59
2023/06/09 11:36:27;;;;;;;0.97;0.70;;;30.50;71.70;;;;;;5112223;28;20526;-57
2023/06/09 11:39:03;;;;;;;1.00;0.80;;;30.70;70.30;;;;;;5106005;28;20479;-57
2023/06/09 11:41:31;;;;;;;1.10;0.70;;;30.90;66.90;;;;;;5095795;28;20488;-59
2023/06/09 11:44:00;;;;;;;1.00;0.80;;;30.30;68.70;;;;;;5096055;28;20483;-59
2023/06/09 11:46:27;;;;;;;0.90;0.60;;;30.50;71.60;;;;;;5105478;28;20511;-60
2023/06/09 11:49:04;;;;;;;0.70;0.60;;;30.40;67.10;;;;;;5092790;28;20518;-59
2023/06/09 11:51:53;;;;;;;0.90;0.60;;;30.30;68.50;;;;;;5094597;28;20487;-58
2023/06/09 11:54:21;;;;;;;0.80;0.60;;;30.30;68.80;;;;;;5103105;28;20438;-58
2023/06/09 11:56:49;;;;;;;1.10;0.70;;;30.40;67.30;;;;;;5098329;28;20951;-58
2023/06/09 11:59:18;;;;;;;1.20;0.60;;;30.50;66.60;;;;;;5106200;28;20871;-59
2023/06/09 12:01:48;;;;;;;2.30;0.90;;;30.60;66.80;;;;;;5095175;28;20860;-59
2023/06/09 12:04:15;;;;;;;1.10;0.70;;;30.90;65.70;;;;;;5094683;28;20441;-59
2023/06/09 12:06:46;;;;;;;0.90;0.70;;;31.20;66.40;;;;;;5102288;28;21030;-59
2023/06/09 12:09:23;;;;;;;0.90;0.70;;;31.50;63.30;;;;;;5112341;28;20419;-58
2023/06/09 12:11:53;;;;;;;1.00;0.63;;;31.40;62.60;;;;;;5112871;28;20477;-59
2023/06/09 12:14:21;;;;;;;0.90;0.70;;;30.80;63.20;;;;;;5099133;28;20465;-59
2023/06/09 12:16:49;;;;;;;1.20;0.70;;;31.00;64.60;;;;;;5099894;28;20502;-58
2023/06/09 12:19:17;;;;;;;1.10;0.80;;;31.50;65.70;;;;;;5093715;28;20429;-58
2023/06/09 12:21:48;;;;;;;1.20;0.77;;;32.00;63.50;;;;;;5092880;28;20437;-58
2023/06/09 12:24:15;;;;;;;1.67;0.70;;;32.40;62.80;;;;;;5093891;28;20421;-59
2023/06/09 12:26:47;;;;;;;0.90;0.80;;;32.60;60.10;;;;;;5094305;28;20429;-60
2023/06/09 12:29:14;;;;;;;0.80;0.70;;;32.10;58.50;;;;;;5110076;28;20415;-59
2023/06/09 12:31:46;;;;;;;0.90;0.60;;;31.90;58.70;;;;;;5113535;28;20515;-61
2023/06/09 12:34:28;;;;;;;0.80;0.60;;;31.80;56.80;;;;;;5111980;28;20467;-58
2023/06/09 12:36:56;;;;;;;0.90;0.70;;;32.40;57.80;;;;;;5111778;28;20434;-59
2023/06/09 12:39:26;;;;;;;0.90;0.70;;;32.00;58.00;;;;;;5110542;28;20469;-59
2023/06/09 12:41:54;;;;;;;0.80;0.60;;;31.10;58.60;;;;;;5111508;28;20416;-59
2023/06/09 12:44:22;;;;;;;0.80;0.70;;;30.30;61.00;;;;;;5110258;28;20747;-61
2023/06/09 12:46:55;;;;;;;1.17;0.60;;;29.50;63.00;;;;;;5110503;28;20477;-61
2023/06/09 12:49:30;;;;;;;0.80;0.60;;;29.20;65.50;;;;;;5092703;28;20427;-62
2023/06/09 12:51:57;;;;;;;1.10;0.80;;;29.40;64.90;;;;;;5102568;28;20441;-64
2023/06/09 12:54:26;;;;;;;0.90;0.60;;;29.90;62.80;;;;;;5106294;28;20422;-64
2023/06/09 12:56:56;;;;;;;0.80;0.70;;;30.00;61.70;;;;;;5089521;28;20424;-64
2023/06/09 12:59:23;;;;;;;0.80;0.67;;;30.00;61.20;;;;;;5103589;28;20824;-64
2023/06/09 13:01:52;;;;;;;3.63;0.90;;;30.40;60.10;;;;;;5089531;28;20434;-65